Terminal Aerodrome Forecast
Issued by NWS

Home | Current Version | Previous Version | Text Only | Print | Product List | Glossary On
Versions: 1 2 3 4 5 6 7 8 9 10 11 12 13 14 15 16 17 18 19 20 21 22 23 24 25 26 27 28 29 30 31
000
FTUS45 KSLC 232326
TAFEVW
TAF
KEVW 232326Z 2400/2424 25015KT P6SM VCSH SCT015 OVC035
     FM240400 25008KT 5SM -SHSN BR BKN015 BKN035
     FM241500 27010KT P6SM VCSH SCT020 BKN040=

USA.gov is the U.S. government's official web portal to all federal, state and local government web resources and services.